FMM weather

Public forecast

Using degrees Celsius for public forecast. Weather courtesy of forecast.io.

Current aviation weather report (METAR) for Memmingen Allgau Airport

Retrieved 2020/08/10 15:20 UTC (3 minutes ago):

EDJA 101520Z VRB03KT CAVOK 29/15 Q1015

Closest aviation forecast (TAF) to Memmingen Allgau Airport

Forecast is more than 12 hours old.

Closest forecast is Laupheim Air Base, 19.2 nm (35.5 km) NW. Retrieved 2017/01/30 06:45 UTC (4 years ago):

TAF TAF COR ETHL 300542Z 3006/3018 22005KT 4000 BR SCT100 BKN220 BECMG 3008/3010 23005KT 6000 RA SCT040 BKN060 TEMPO 3009/3018 22012KT 3000 -FZRA BKN012 BKN020